Terminal Aerodrome Forecast
Issued by NWS

Current Version | Previous Version | Graphics & Text | Print | Product List | Glossary On
Versions: 1 2 3 4 5 6 7 8 9 10 11 12 13 14 15 16 17
160
FTUS41 KPBZ 201739
TAFHLG
TAF
KHLG 201739Z 2018/2118 12005KT P6SM SCT010
     FM201830 12003KT P6SM SCT250
     FM210800 13006KT P6SM SCT250
     FM211400 17007KT P6SM SCT250=

USA.gov is the U.S. government's official web portal to all federal, state and local government web resources and services.